sensor_id;sensor_type;location;lat;lon;timestamp;P1;durP1;ratioP1;P2;durP2;ratioP2
26502;SDS011;14177;51.520;6.764;2022-12-28T00:02:12;5.35;;;2.28;;
26502;SDS011;14177;51.520;6.764;2022-12-28T00:04:40;7.18;;;1.77;;
26502;SDS011;14177;51.520;6.764;2022-12-28T00:07:08;2.85;;;1.60;;
26502;SDS011;14177;51.520;6.764;2022-12-28T00:09:35;5.30;;;1.77;;
26502;SDS011;14177;51.520;6.764;2022-12-28T00:12:03;5.05;;;1.67;;
26502;SDS011;14177;51.520;6.764;2022-12-28T00:14:31;7.30;;;2.30;;
26502;SDS011;14177;51.520;6.764;2022-12-28T00:16:58;4.97;;;1.77;;
26502;SDS011;14177;51.520;6.764;2022-12-28T00:19:25;6.53;;;1.90;;
26502;SDS011;14177;51.520;6.764;2022-12-28T00:21:56;6.47;;;1.95;;
26502;SDS011;14177;51.520;6.764;2022-12-28T00:24:24;6.75;;;1.77;;
26502;SDS011;14177;51.520;6.764;2022-12-28T00:26:52;7.63;;;2.15;;
26502;SDS011;14177;51.520;6.764;2022-12-28T00:29:22;8.35;;;2.05;;
26502;SDS011;14177;51.520;6.764;2022-12-28T00:31:50;6.30;;;1.95;;
26502;SDS011;14177;51.520;6.764;2022-12-28T00:34:22;5.82;;;2.15;;
26502;SDS011;14177;51.520;6.764;2022-12-28T00:36:50;10.48;;;2.65;;
26502;SDS011;14177;51.520;6.764;2022-12-28T00:39:38;7.65;;;3.03;;
26502;SDS011;14177;51.520;6.764;2022-12-28T00:42:07;8.68;;;3.28;;
26502;SDS011;14177;51.520;6.764;2022-12-28T00:44:36;8.88;;;3.00;;
26502;SDS011;14177;51.520;6.764;2022-12-28T00:47:03;7.90;;;3.28;;
26502;SDS011;14177;51.520;6.764;2022-12-28T00:49:30;7.95;;;2.83;;
26502;SDS011;14177;51.520;6.764;2022-12-28T00:51:58;5.90;;;2.33;;
26502;SDS011;14177;51.520;6.764;2022-12-28T00:54:25;5.13;;;2.05;;
26502;SDS011;14177;51.520;6.764;2022-12-28T00:56:52;6.28;;;2.60;;
26502;SDS011;14177;51.520;6.764;2022-12-28T00:59:22;7.68;;;2.65;;
26502;SDS011;14177;51.520;6.764;2022-12-28T01:01:50;6.57;;;2.67;;
26502;SDS011;14177;51.520;6.764;2022-12-28T01:04:17;11.85;;;3.50;;
26502;SDS011;14177;51.520;6.764;2022-12-28T01:06:44;7.00;;;3.90;;
26502;SDS011;14177;51.520;6.764;2022-12-28T01:09:12;11.82;;;3.95;;
26502;SDS011;14177;51.520;6.764;2022-12-28T01:11:55;6.30;;;2.75;;
26502;SDS011;14177;51.520;6.764;2022-12-28T01:15:01;2.67;;;1.58;;
26502;SDS011;14177;51.520;6.764;2022-12-28T01:17:31;4.75;;;2.17;;
26502;SDS011;14177;51.520;6.764;2022-12-28T01:20:00;5.47;;;2.10;;
26502;SDS011;14177;51.520;6.764;2022-12-28T01:22:30;7.82;;;2.50;;
26502;SDS011;14177;51.520;6.764;2022-12-28T01:25:00;4.03;;;2.05;;
26502;SDS011;14177;51.520;6.764;2022-12-28T01:27:27;5.55;;;2.50;;
26502;SDS011;14177;51.520;6.764;2022-12-28T01:29:54;3.55;;;2.20;;
26502;SDS011;14177;51.520;6.764;2022-12-28T01:32:21;4.18;;;2.13;;
26502;SDS011;14177;51.520;6.764;2022-12-28T01:34:49;4.07;;;2.00;;
26502;SDS011;14177;51.520;6.764;2022-12-28T01:37:16;3.20;;;1.80;;
26502;SDS011;14177;51.520;6.764;2022-12-28T01:39:43;4.30;;;1.85;;
26502;SDS011;14177;51.520;6.764;2022-12-28T01:42:17;6.25;;;1.90;;
26502;SDS011;14177;51.520;6.764;2022-12-28T01:44:46;6.07;;;2.45;;
26502;SDS011;14177;51.520;6.764;2022-12-28T01:47:34;5.68;;;2.10;;
26502;SDS011;14177;51.520;6.764;2022-12-28T01:50:04;4.07;;;2.47;;
26502;SDS011;14177;51.520;6.764;2022-12-28T01:52:42;7.03;;;2.80;;
26502;SDS011;14177;51.520;6.764;2022-12-28T01:55:19;4.85;;;1.98;;
26502;SDS011;14177;51.520;6.764;2022-12-28T01:57:53;9.80;;;2.25;;
26502;SDS011;14177;51.520;6.764;2022-12-28T02:00:33;5.65;;;2.58;;
26502;SDS011;14177;51.520;6.764;2022-12-28T02:05:32;5.35;;;2.53;;
26502;SDS011;14177;51.520;6.764;2022-12-28T02:11:13;4.40;;;2.60;;
26502;SDS011;14177;51.520;6.764;2022-12-28T02:13:45;3.80;;;2.25;;
26502;SDS011;14177;51.520;6.764;2022-12-28T02:16:16;7.50;;;2.15;;
26502;SDS011;14177;51.520;6.764;2022-12-28T02:18:45;3.50;;;1.92;;
26502;SDS011;14177;51.520;6.764;2022-12-28T02:21:30;6.00;;;1.90;;
26502;SDS011;14177;51.520;6.764;2022-12-28T02:31:05;3.83;;;1.60;;
26502;SDS011;14177;51.520;6.764;2022-12-28T02:33:42;6.32;;;1.83;;
26502;SDS011;14177;51.520;6.764;2022-12-28T02:36:33;5.05;;;2.00;;
26502;SDS011;14177;51.520;6.764;2022-12-28T02:39:21;4.07;;;2.03;;
26502;SDS011;14177;51.520;6.764;2022-12-28T02:42:03;5.15;;;2.33;;
26502;SDS011;14177;51.520;6.764;2022-12-28T02:44:35;5.45;;;2.72;;
26502;SDS011;14177;51.520;6.764;2022-12-28T02:47:22;6.07;;;2.45;;
26502;SDS011;14177;51.520;6.764;2022-12-28T02:50:09;6.50;;;2.15;;
26502;SDS011;14177;51.520;6.764;2022-12-28T02:55:57;4.95;;;2.40;;
26502;SDS011;14177;51.520;6.764;2022-12-28T03:04:08;7.68;;;3.90;;
26502;SDS011;14177;51.520;6.764;2022-12-28T03:07:05;8.88;;;3.72;;
26502;SDS011;14177;51.520;6.764;2022-12-28T03:10:25;9.23;;;3.22;;
26502;SDS011;14177;51.520;6.764;2022-12-28T03:13:11;8.60;;;2.42;;
26502;SDS011;14177;51.520;6.764;2022-12-28T03:16:07;7.68;;;2.92;;
26502;SDS011;14177;51.520;6.764;2022-12-28T03:19:24;6.18;;;2.80;;
26502;SDS011;14177;51.520;6.764;2022-12-28T03:22:16;6.32;;;2.53;;
26502;SDS011;14177;51.520;6.764;2022-12-28T03:25:08;8.02;;;2.45;;
26502;SDS011;14177;51.520;6.764;2022-12-28T03:27:58;7.95;;;3.20;;
26502;SDS011;14177;51.520;6.764;2022-12-28T03:30:50;10.05;;;3.47;;
26502;SDS011;14177;51.520;6.764;2022-12-28T03:33:37;8.63;;;3.78;;
26502;SDS011;14177;51.520;6.764;2022-12-28T03:42:38;11.18;;;3.38;;
26502;SDS011;14177;51.520;6.764;2022-12-28T03:48:14;4.88;;;2.03;;
26502;SDS011;14177;51.520;6.764;2022-12-28T03:50:45;4.80;;;1.80;;
26502;SDS011;14177;51.520;6.764;2022-12-28T03:53:16;3.45;;;1.73;;
26502;SDS011;14177;51.520;6.764;2022-12-28T03:56:04;2.47;;;1.60;;
26502;SDS011;14177;51.520;6.764;2022-12-28T03:58:42;4.22;;;1.73;;
26502;SDS011;14177;51.520;6.764;2022-12-28T04:01:12;4.22;;;2.10;;
26502;SDS011;14177;51.520;6.764;2022-12-28T04:03:41;3.15;;;1.92;;
26502;SDS011;14177;51.520;6.764;2022-12-28T04:06:16;3.78;;;2.22;;
26502;SDS011;14177;51.520;6.764;2022-12-28T04:08:45;6.18;;;2.60;;
26502;SDS011;14177;51.520;6.764;2022-12-28T04:11:13;4.70;;;1.83;;
26502;SDS011;14177;51.520;6.764;2022-12-28T04:13:46;4.93;;;1.67;;
26502;SDS011;14177;51.520;6.764;2022-12-28T04:16:16;4.47;;;2.13;;
26502;SDS011;14177;51.520;6.764;2022-12-28T04:18:44;3.90;;;2.10;;
26502;SDS011;14177;51.520;6.764;2022-12-28T04:21:12;3.95;;;2.17;;
26502;SDS011;14177;51.520;6.764;2022-12-28T04:23:43;7.38;;;2.80;;
26502;SDS011;14177;51.520;6.764;2022-12-28T04:26:19;4.97;;;2.28;;
26502;SDS011;14177;51.520;6.764;2022-12-28T04:28:50;3.95;;;2.00;;
26502;SDS011;14177;51.520;6.764;2022-12-28T04:31:46;8.20;;;3.08;;
26502;SDS011;14177;51.520;6.764;2022-12-28T04:34:17;6.70;;;2.78;;
26502;SDS011;14177;51.520;6.764;2022-12-28T04:39:21;5.18;;;2.10;;
26502;SDS011;14177;51.520;6.764;2022-12-28T04:41:49;4.60;;;2.15;;
26502;SDS011;14177;51.520;6.764;2022-12-28T04:44:26;9.65;;;2.20;;
26502;SDS011;14177;51.520;6.764;2022-12-28T04:53:09;4.93;;;2.10;;
26502;SDS011;14177;51.520;6.764;2022-12-28T04:56:47;3.50;;;2.13;;
26502;SDS011;14177;51.520;6.764;2022-12-28T04:59:31;4.00;;;2.40;;
26502;SDS011;14177;51.520;6.764;2022-12-28T05:03:04;6.55;;;2.53;;
26502;SDS011;14177;51.520;6.764;2022-12-28T05:05:41;3.70;;;1.95;;
26502;SDS011;14177;51.520;6.764;2022-12-28T05:08:16;3.53;;;1.50;;
26502;SDS011;14177;51.520;6.764;2022-12-28T05:10:45;4.47;;;1.90;;
26502;SDS011;14177;51.520;6.764;2022-12-28T05:13:17;5.57;;;2.42;;
26502;SDS011;14177;51.520;6.764;2022-12-28T05:16:01;5.97;;;2.00;;
26502;SDS011;14177;51.520;6.764;2022-12-28T05:18:39;3.17;;;1.88;;
26502;SDS011;14177;51.520;6.764;2022-12-28T05:21:21;5.03;;;2.03;;
26502;SDS011;14177;51.520;6.764;2022-12-28T05:24:04;4.78;;;2.00;;
26502;SDS011;14177;51.520;6.764;2022-12-28T05:26:37;3.92;;;1.52;;
26502;SDS011;14177;51.520;6.764;2022-12-28T05:29:10;4.57;;;1.77;;
26502;SDS011;14177;51.520;6.764;2022-12-28T05:31:42;2.75;;;1.17;;
26502;SDS011;14177;51.520;6.764;2022-12-28T05:34:10;5.82;;;1.58;;
26502;SDS011;14177;51.520;6.764;2022-12-28T05:36:39;5.65;;;1.85;;
26502;SDS011;14177;51.520;6.764;2022-12-28T05:39:40;2.75;;;1.65;;
26502;SDS011;14177;51.520;6.764;2022-12-28T05:42:21;3.20;;;1.55;;
26502;SDS011;14177;51.520;6.764;2022-12-28T05:45:25;5.65;;;1.70;;
26502;SDS011;14177;51.520;6.764;2022-12-28T05:48:01;7.32;;;1.88;;
26502;SDS011;14177;51.520;6.764;2022-12-28T05:50:33;3.30;;;1.80;;
26502;SDS011;14177;51.520;6.764;2022-12-28T05:53:03;7.05;;;1.90;;
26502;SDS011;14177;51.520;6.764;2022-12-28T05:55:30;3.05;;;1.60;;
26502;SDS011;14177;51.520;6.764;2022-12-28T05:57:57;5.13;;;1.52;;
26502;SDS011;14177;51.520;6.764;2022-12-28T06:00:24;4.68;;;1.67;;
26502;SDS011;14177;51.520;6.764;2022-12-28T06:02:51;9.65;;;2.63;;
26502;SDS011;14177;51.520;6.764;2022-12-28T06:05:20;6.93;;;2.20;;
26502;SDS011;14177;51.520;6.764;2022-12-28T06:07:50;6.30;;;2.08;;
26502;SDS011;14177;51.520;6.764;2022-12-28T06:10:18;8.35;;;2.13;;
26502;SDS011;14177;51.520;6.764;2022-12-28T06:12:45;3.65;;;1.83;;
26502;SDS011;14177;51.520;6.764;2022-12-28T06:15:12;4.75;;;1.90;;
26502;SDS011;14177;51.520;6.764;2022-12-28T06:17:39;5.20;;;2.42;;
26502;SDS011;14177;51.520;6.764;2022-12-28T06:20:06;3.85;;;2.15;;
26502;SDS011;14177;51.520;6.764;2022-12-28T06:22:34;3.20;;;2.30;;
26502;SDS011;14177;51.520;6.764;2022-12-28T06:25:01;4.47;;;2.72;;
26502;SDS011;14177;51.520;6.764;2022-12-28T06:27:32;4.47;;;2.05;;
26502;SDS011;14177;51.520;6.764;2022-12-28T06:29:59;6.40;;;2.60;;
26502;SDS011;14177;51.520;6.764;2022-12-28T06:32:26;5.13;;;2.30;;
26502;SDS011;14177;51.520;6.764;2022-12-28T06:34:53;8.40;;;2.85;;
26502;SDS011;14177;51.520;6.764;2022-12-28T06:37:20;8.07;;;3.13;;
26502;SDS011;14177;51.520;6.764;2022-12-28T06:39:47;5.28;;;2.90;;
26502;SDS011;14177;51.520;6.764;2022-12-28T06:42:14;6.88;;;3.63;;
26502;SDS011;14177;51.520;6.764;2022-12-28T06:44:41;10.82;;;4.57;;
26502;SDS011;14177;51.520;6.764;2022-12-28T06:47:10;4.75;;;2.72;;
26502;SDS011;14177;51.520;6.764;2022-12-28T06:49:37;7.63;;;3.70;;
26502;SDS011;14177;51.520;6.764;2022-12-28T06:52:04;8.32;;;3.50;;
26502;SDS011;14177;51.520;6.764;2022-12-28T06:54:31;9.50;;;4.15;;
26502;SDS011;14177;51.520;6.764;2022-12-28T06:56:59;5.65;;;3.30;;
26502;SDS011;14177;51.520;6.764;2022-12-28T06:59:26;6.93;;;3.00;;
26502;SDS011;14177;51.520;6.764;2022-12-28T07:01:54;5.85;;;3.03;;
26502;SDS011;14177;51.520;6.764;2022-12-28T07:04:22;6.05;;;3.70;;
26502;SDS011;14177;51.520;6.764;2022-12-28T07:06:58;7.15;;;2.72;;
26502;SDS011;14177;51.520;6.764;2022-12-28T07:09:26;3.97;;;1.63;;
26502;SDS011;14177;51.520;6.764;2022-12-28T07:12:12;3.75;;;1.73;;
26502;SDS011;14177;51.520;6.764;2022-12-28T07:14:39;3.95;;;2.10;;
26502;SDS011;14177;51.520;6.764;2022-12-28T07:17:16;6.80;;;2.05;;
26502;SDS011;14177;51.520;6.764;2022-12-28T07:24:07;5.40;;;1.70;;
26502;SDS011;14177;51.520;6.764;2022-12-28T07:29:39;4.30;;;2.05;;
26502;SDS011;14177;51.520;6.764;2022-12-28T07:32:08;4.55;;;2.38;;
26502;SDS011;14177;51.520;6.764;2022-12-28T07:34:34;9.35;;;2.60;;
26502;SDS011;14177;51.520;6.764;2022-12-28T07:37:02;9.52;;;2.42;;
26502;SDS011;14177;51.520;6.764;2022-12-28T07:39:28;7.45;;;1.85;;
26502;SDS011;14177;51.520;6.764;2022-12-28T07:41:56;5.43;;;2.75;;
26502;SDS011;14177;51.520;6.764;2022-12-28T07:44:22;5.82;;;2.55;;
26502;SDS011;14177;51.520;6.764;2022-12-28T07:46:55;8.32;;;3.08;;
26502;SDS011;14177;51.520;6.764;2022-12-28T07:49:22;3.97;;;2.50;;
26502;SDS011;14177;51.520;6.764;2022-12-28T07:51:51;9.00;;;2.92;;
26502;SDS011;14177;51.520;6.764;2022-12-28T07:54:25;5.22;;;2.70;;
26502;SDS011;14177;51.520;6.764;2022-12-28T08:02:23;3.83;;;2.10;;
26502;SDS011;14177;51.520;6.764;2022-12-28T08:04:53;8.45;;;2.30;;
26502;SDS011;14177;51.520;6.764;2022-12-28T08:07:20;4.75;;;2.03;;
26502;SDS011;14177;51.520;6.764;2022-12-28T08:09:47;4.43;;;2.10;;
26502;SDS011;14177;51.520;6.764;2022-12-28T08:12:14;7.38;;;2.40;;
26502;SDS011;14177;51.520;6.764;2022-12-28T08:14:41;6.38;;;2.08;;
26502;SDS011;14177;51.520;6.764;2022-12-28T08:17:08;5.40;;;2.03;;
26502;SDS011;14177;51.520;6.764;2022-12-28T08:22:33;3.05;;;1.63;;
26502;SDS011;14177;51.520;6.764;2022-12-28T08:25:03;4.20;;;1.30;;
26502;SDS011;14177;51.520;6.764;2022-12-28T08:27:30;4.35;;;1.40;;
26502;SDS011;14177;51.520;6.764;2022-12-28T08:30:04;4.30;;;2.00;;
26502;SDS011;14177;51.520;6.764;2022-12-28T08:32:32;3.38;;;1.83;;
26502;SDS011;14177;51.520;6.764;2022-12-28T08:34:59;7.35;;;2.00;;
26502;SDS011;14177;51.520;6.764;2022-12-28T08:37:30;4.78;;;2.08;;
26502;SDS011;14177;51.520;6.764;2022-12-28T08:39:57;3.67;;;2.28;;
26502;SDS011;14177;51.520;6.764;2022-12-28T08:42:31;2.80;;;1.48;;
26502;SDS011;14177;51.520;6.764;2022-12-28T08:44:59;3.05;;;1.38;;
26502;SDS011;14177;51.520;6.764;2022-12-28T08:47:26;3.28;;;1.33;;
26502;SDS011;14177;51.520;6.764;2022-12-28T08:49:53;4.03;;;1.80;;
26502;SDS011;14177;51.520;6.764;2022-12-28T08:52:22;2.92;;;1.38;;
26502;SDS011;14177;51.520;6.764;2022-12-28T08:54:50;1.98;;;1.33;;
26502;SDS011;14177;51.520;6.764;2022-12-28T08:57:17;3.25;;;1.40;;
26502;SDS011;14177;51.520;6.764;2022-12-28T08:59:44;6.93;;;2.00;;
26502;SDS011;14177;51.520;6.764;2022-12-28T09:02:12;4.00;;;1.75;;
26502;SDS011;14177;51.520;6.764;2022-12-28T09:04:40;4.55;;;1.80;;
26502;SDS011;14177;51.520;6.764;2022-12-28T09:07:08;1.30;;;1.20;;
26502;SDS011;14177;51.520;6.764;2022-12-28T09:09:37;5.97;;;1.40;;
26502;SDS011;14177;51.520;6.764;2022-12-28T09:12:04;3.33;;;1.50;;
26502;SDS011;14177;51.520;6.764;2022-12-28T09:14:32;2.63;;;0.93;;
26502;SDS011;14177;51.520;6.764;2022-12-28T09:17:01;2.13;;;1.10;;
26502;SDS011;14177;51.520;6.764;2022-12-28T09:19:28;2.38;;;1.50;;
26502;SDS011;14177;51.520;6.764;2022-12-28T09:21:56;5.35;;;1.67;;
26502;SDS011;14177;51.520;6.764;2022-12-28T09:24:23;6.22;;;1.90;;
26502;SDS011;14177;51.520;6.764;2022-12-28T09:26:50;8.73;;;1.58;;
26502;SDS011;14177;51.520;6.764;2022-12-28T09:29:20;3.78;;;1.10;;
26502;SDS011;14177;51.520;6.764;2022-12-28T09:31:47;2.92;;;1.63;;
26502;SDS011;14177;51.520;6.764;2022-12-28T09:34:14;4.70;;;1.38;;
26502;SDS011;14177;51.520;6.764;2022-12-28T09:37:01;2.17;;;1.00;;
26502;SDS011;14177;51.520;6.764;2022-12-28T09:39:28;2.05;;;0.85;;
26502;SDS011;14177;51.520;6.764;2022-12-28T09:44:35;1.70;;;1.00;;
26502;SDS011;14177;51.520;6.764;2022-12-28T09:47:19;4.65;;;1.02;;
26502;SDS011;14177;51.520;6.764;2022-12-28T09:55:31;3.80;;;1.10;;
26502;SDS011;14177;51.520;6.764;2022-12-28T09:58:04;2.33;;;1.10;;
26502;SDS011;14177;51.520;6.764;2022-12-28T10:00:49;3.30;;;1.52;;
26502;SDS011;14177;51.520;6.764;2022-12-28T10:03:35;4.15;;;1.67;;
26502;SDS011;14177;51.520;6.764;2022-12-28T10:06:16;3.53;;;1.40;;
26502;SDS011;14177;51.520;6.764;2022-12-28T10:48:22;2.15;;;1.27;;
26502;SDS011;14177;51.520;6.764;2022-12-28T10:51:24;7.35;;;1.08;;
26502;SDS011;14177;51.520;6.764;2022-12-28T10:54:45;3.92;;;1.80;;
26502;SDS011;14177;51.520;6.764;2022-12-28T11:21:04;3.70;;;1.05;;
26502;SDS011;14177;51.520;6.764;2022-12-28T11:37:18;2.55;;;1.30;;
26502;SDS011;14177;51.520;6.764;2022-12-28T12:02:39;2.17;;;1.02;;
26502;SDS011;14177;51.520;6.764;2022-12-28T12:05:57;3.53;;;1.30;;
26502;SDS011;14177;51.520;6.764;2022-12-28T12:10:42;2.03;;;1.05;;
26502;SDS011;14177;51.520;6.764;2022-12-28T12:16:02;2.60;;;1.50;;
26502;SDS011;14177;51.520;6.764;2022-12-28T12:18:44;6.97;;;1.83;;
26502;SDS011;14177;51.520;6.764;2022-12-28T12:21:26;4.38;;;1.27;;
26502;SDS011;14177;51.520;6.764;2022-12-28T12:24:07;3.38;;;1.70;;
26502;SDS011;14177;51.520;6.764;2022-12-28T12:27:00;2.58;;;1.10;;
26502;SDS011;14177;51.520;6.764;2022-12-28T12:29:42;5.68;;;1.30;;
26502;SDS011;14177;51.520;6.764;2022-12-28T12:32:23;3.72;;;1.73;;
26502;SDS011;14177;51.520;6.764;2022-12-28T12:35:01;7.63;;;2.33;;
26502;SDS011;14177;51.520;6.764;2022-12-28T12:49:48;6.50;;;1.88;;
26502;SDS011;14177;51.520;6.764;2022-12-28T12:52:39;2.75;;;1.50;;
26502;SDS011;14177;51.520;6.764;2022-12-28T12:58:08;6.88;;;1.80;;
26502;SDS011;14177;51.520;6.764;2022-12-28T13:03:44;3.38;;;1.73;;
26502;SDS011;14177;51.520;6.764;2022-12-28T13:06:19;4.32;;;1.52;;
26502;SDS011;14177;51.520;6.764;2022-12-28T13:08:57;4.10;;;1.40;;
26502;SDS011;14177;51.520;6.764;2022-12-28T13:11:31;4.07;;;1.70;;
26502;SDS011;14177;51.520;6.764;2022-12-28T13:14:05;5.40;;;2.42;;
26502;SDS011;14177;51.520;6.764;2022-12-28T13:16:47;4.18;;;1.85;;
26502;SDS011;14177;51.520;6.764;2022-12-28T13:19:23;3.60;;;1.77;;
26502;SDS011;14177;51.520;6.764;2022-12-28T13:21:56;6.85;;;2.90;;
26502;SDS011;14177;51.520;6.764;2022-12-28T13:24:28;8.40;;;2.60;;
26502;SDS011;14177;51.520;6.764;2022-12-28T13:27:01;4.30;;;1.48;;
26502;SDS011;14177;51.520;6.764;2022-12-28T13:42:13;1.98;;;1.00;;
26502;SDS011;14177;51.520;6.764;2022-12-28T13:44:48;4.40;;;1.85;;
26502;SDS011;14177;51.520;6.764;2022-12-28T13:47:22;3.17;;;1.10;;
26502;SDS011;14177;51.520;6.764;2022-12-28T13:49:58;2.03;;;1.00;;
26502;SDS011;14177;51.520;6.764;2022-12-28T13:52:55;1.80;;;1.00;;
26502;SDS011;14177;51.520;6.764;2022-12-28T13:55:35;3.72;;;1.20;;
26502;SDS011;14177;51.520;6.764;2022-12-28T13:58:10;2.75;;;1.35;;
26502;SDS011;14177;51.520;6.764;2022-12-28T14:00:49;5.13;;;1.30;;
26502;SDS011;14177;51.520;6.764;2022-12-28T14:03:20;3.70;;;1.27;;
26502;SDS011;14177;51.520;6.764;2022-12-28T14:05:48;3.55;;;1.30;;
26502;SDS011;14177;51.520;6.764;2022-12-28T14:08:22;8.73;;;2.70;;
26502;SDS011;14177;51.520;6.764;2022-12-28T14:10:49;4.03;;;1.83;;
26502;SDS011;14177;51.520;6.764;2022-12-28T14:13:17;3.72;;;1.67;;
26502;SDS011;14177;51.520;6.764;2022-12-28T14:15:45;4.82;;;1.50;;
26502;SDS011;14177;51.520;6.764;2022-12-28T14:18:14;3.70;;;1.60;;
26502;SDS011;14177;51.520;6.764;2022-12-28T14:20:44;3.10;;;1.35;;
26502;SDS011;14177;51.520;6.764;2022-12-28T14:23:17;2.28;;;1.48;;
26502;SDS011;14177;51.520;6.764;2022-12-28T14:25:49;2.40;;;1.35;;
26502;SDS011;14177;51.520;6.764;2022-12-28T14:31:05;8.43;;;1.63;;
26502;SDS011;14177;51.520;6.764;2022-12-28T14:33:36;3.33;;;1.70;;
26502;SDS011;14177;51.520;6.764;2022-12-28T14:36:27;3.72;;;1.20;;
26502;SDS011;14177;51.520;6.764;2022-12-28T14:39:14;3.22;;;1.15;;
26502;SDS011;14177;51.520;6.764;2022-12-28T14:44:26;3.47;;;1.38;;
26502;SDS011;14177;51.520;6.764;2022-12-28T14:50:15;3.33;;;1.58;;
26502;SDS011;14177;51.520;6.764;2022-12-28T14:52:59;4.55;;;1.55;;
26502;SDS011;14177;51.520;6.764;2022-12-28T14:55:42;6.45;;;1.85;;
26502;SDS011;14177;51.520;6.764;2022-12-28T14:58:44;3.50;;;1.83;;
26502;SDS011;14177;51.520;6.764;2022-12-28T15:01:24;5.78;;;2.00;;
26502;SDS011;14177;51.520;6.764;2022-12-28T15:04:09;4.65;;;1.60;;
26502;SDS011;14177;51.520;6.764;2022-12-28T15:06:50;6.15;;;1.45;;
26502;SDS011;14177;51.520;6.764;2022-12-28T15:09:18;2.88;;;1.60;;
26502;SDS011;14177;51.520;6.764;2022-12-28T15:11:44;4.00;;;1.42;;
26502;SDS011;14177;51.520;6.764;2022-12-28T15:14:11;4.95;;;1.92;;
26502;SDS011;14177;51.520;6.764;2022-12-28T15:16:38;7.10;;;2.10;;
26502;SDS011;14177;51.520;6.764;2022-12-28T15:19:05;3.35;;;1.67;;
26502;SDS011;14177;51.520;6.764;2022-12-28T15:21:32;2.30;;;1.40;;
26502;SDS011;14177;51.520;6.764;2022-12-28T15:24:00;4.20;;;2.03;;
26502;SDS011;14177;51.520;6.764;2022-12-28T15:26:27;4.35;;;1.70;;
26502;SDS011;14177;51.520;6.764;2022-12-28T15:28:54;2.22;;;1.52;;
26502;SDS011;14177;51.520;6.764;2022-12-28T15:31:21;3.47;;;1.65;;
26502;SDS011;14177;51.520;6.764;2022-12-28T15:33:49;8.40;;;1.70;;
26502;SDS011;14177;51.520;6.764;2022-12-28T15:36:19;4.38;;;1.30;;
26502;SDS011;14177;51.520;6.764;2022-12-28T15:38:47;5.78;;;2.20;;
26502;SDS011;14177;51.520;6.764;2022-12-28T15:41:15;3.08;;;1.92;;
26502;SDS011;14177;51.520;6.764;2022-12-28T15:44:03;6.38;;;2.00;;
26502;SDS011;14177;51.520;6.764;2022-12-28T15:46:31;3.88;;;2.15;;
26502;SDS011;14177;51.520;6.764;2022-12-28T15:49:00;10.35;;;1.70;;
26502;SDS011;14177;51.520;6.764;2022-12-28T15:51:29;4.55;;;1.60;;
26502;SDS011;14177;51.520;6.764;2022-12-28T15:53:56;3.28;;;1.38;;
26502;SDS011;14177;51.520;6.764;2022-12-28T15:56:28;14.68;;;6.75;;
26502;SDS011;14177;51.520;6.764;2022-12-28T15:58:58;6.30;;;2.50;;
26502;SDS011;14177;51.520;6.764;2022-12-28T16:01:28;6.25;;;3.08;;
26502;SDS011;14177;51.520;6.764;2022-12-28T16:03:58;6.18;;;2.40;;
26502;SDS011;14177;51.520;6.764;2022-12-28T16:06:27;7.32;;;2.08;;
26502;SDS011;14177;51.520;6.764;2022-12-28T16:09:03;3.42;;;2.08;;
26502;SDS011;14177;51.520;6.764;2022-12-28T16:11:31;7.20;;;2.50;;
26502;SDS011;14177;51.520;6.764;2022-12-28T16:14:01;6.50;;;2.78;;
26502;SDS011;14177;51.520;6.764;2022-12-28T16:16:33;8.25;;;2.80;;
26502;SDS011;14177;51.520;6.764;2022-12-28T16:19:04;5.95;;;2.75;;
26502;SDS011;14177;51.520;6.764;2022-12-28T16:21:32;6.30;;;3.13;;
26502;SDS011;14177;51.520;6.764;2022-12-28T16:24:01;7.82;;;2.75;;
26502;SDS011;14177;51.520;6.764;2022-12-28T16:26:28;5.15;;;2.85;;
26502;SDS011;14177;51.520;6.764;2022-12-28T16:28:55;5.82;;;2.15;;
26502;SDS011;14177;51.520;6.764;2022-12-28T16:31:26;5.93;;;2.38;;
26502;SDS011;14177;51.520;6.764;2022-12-28T16:34:00;7.35;;;2.13;;
26502;SDS011;14177;51.520;6.764;2022-12-28T16:36:39;10.07;;;4.00;;
26502;SDS011;14177;51.520;6.764;2022-12-28T16:39:10;7.65;;;2.63;;
26502;SDS011;14177;51.520;6.764;2022-12-28T16:41:40;4.32;;;2.40;;
26502;SDS011;14177;51.520;6.764;2022-12-28T16:44:12;4.20;;;2.42;;
26502;SDS011;14177;51.520;6.764;2022-12-28T16:46:43;7.18;;;1.98;;
26502;SDS011;14177;51.520;6.764;2022-12-28T16:49:11;3.67;;;2.10;;
26502;SDS011;14177;51.520;6.764;2022-12-28T16:51:39;5.97;;;2.70;;
26502;SDS011;14177;51.520;6.764;2022-12-28T16:54:15;5.60;;;2.10;;
26502;SDS011;14177;51.520;6.764;2022-12-28T16:56:49;3.78;;;1.63;;
26502;SDS011;14177;51.520;6.764;2022-12-28T16:59:19;6.78;;;2.10;;
26502;SDS011;14177;51.520;6.764;2022-12-28T17:01:52;5.07;;;2.40;;
26502;SDS011;14177;51.520;6.764;2022-12-28T17:04:21;3.80;;;2.03;;
26502;SDS011;14177;51.520;6.764;2022-12-28T17:06:49;5.75;;;1.83;;
26502;SDS011;14177;51.520;6.764;2022-12-28T17:09:18;2.85;;;1.75;;
26502;SDS011;14177;51.520;6.764;2022-12-28T17:11:46;7.20;;;2.90;;
26502;SDS011;14177;51.520;6.764;2022-12-28T17:14:15;8.05;;;3.30;;
26502;SDS011;14177;51.520;6.764;2022-12-28T17:17:01;5.40;;;2.13;;
26502;SDS011;14177;51.520;6.764;2022-12-28T17:19:29;7.38;;;2.42;;
26502;SDS011;14177;51.520;6.764;2022-12-28T17:21:56;4.03;;;2.20;;
26502;SDS011;14177;51.520;6.764;2022-12-28T17:24:23;6.45;;;2.65;;
26502;SDS011;14177;51.520;6.764;2022-12-28T17:26:51;6.55;;;2.20;;
26502;SDS011;14177;51.520;6.764;2022-12-28T17:29:18;5.78;;;2.97;;
26502;SDS011;14177;51.520;6.764;2022-12-28T17:31:45;8.90;;;3.13;;
26502;SDS011;14177;51.520;6.764;2022-12-28T17:34:12;10.30;;;3.58;;
26502;SDS011;14177;51.520;6.764;2022-12-28T17:36:39;7.75;;;2.70;;
26502;SDS011;14177;51.520;6.764;2022-12-28T17:39:06;8.27;;;2.50;;
26502;SDS011;14177;51.520;6.764;2022-12-28T17:41:33;7.13;;;2.88;;
26502;SDS011;14177;51.520;6.764;2022-12-28T17:44:00;4.07;;;2.30;;
26502;SDS011;14177;51.520;6.764;2022-12-28T17:46:28;7.35;;;3.28;;
26502;SDS011;14177;51.520;6.764;2022-12-28T17:48:58;8.80;;;4.65;;
26502;SDS011;14177;51.520;6.764;2022-12-28T17:51:26;7.45;;;2.97;;
26502;SDS011;14177;51.520;6.764;2022-12-28T17:53:55;8.30;;;3.38;;
26502;SDS011;14177;51.520;6.764;2022-12-28T17:56:23;10.23;;;3.25;;
26502;SDS011;14177;51.520;6.764;2022-12-28T17:58:55;11.02;;;3.72;;
26502;SDS011;14177;51.520;6.764;2022-12-28T18:01:24;9.07;;;3.80;;
26502;SDS011;14177;51.520;6.764;2022-12-28T18:03:55;10.07;;;4.25;;
26502;SDS011;14177;51.520;6.764;2022-12-28T18:06:23;13.63;;;4.30;;
26502;SDS011;14177;51.520;6.764;2022-12-28T18:08:51;6.82;;;3.92;;
26502;SDS011;14177;51.520;6.764;2022-12-28T18:11:22;10.50;;;3.70;;
26502;SDS011;14177;51.520;6.764;2022-12-28T18:14:18;9.05;;;3.80;;
26502;SDS011;14177;51.520;6.764;2022-12-28T18:16:46;5.95;;;3.20;;
26502;SDS011;14177;51.520;6.764;2022-12-28T18:19:14;8.10;;;3.08;;
26502;SDS011;14177;51.520;6.764;2022-12-28T18:21:45;6.75;;;3.10;;
26502;SDS011;14177;51.520;6.764;2022-12-28T18:24:20;6.28;;;3.22;;
26502;SDS011;14177;51.520;6.764;2022-12-28T18:29:45;11.05;;;3.55;;
26502;SDS011;14177;51.520;6.764;2022-12-28T18:32:19;17.77;;;5.55;;
26502;SDS011;14177;51.520;6.764;2022-12-28T18:35:02;15.45;;;5.47;;
26502;SDS011;14177;51.520;6.764;2022-12-28T18:37:39;19.67;;;6.43;;
26502;SDS011;14177;51.520;6.764;2022-12-28T18:40:44;12.25;;;4.93;;
26502;SDS011;14177;51.520;6.764;2022-12-28T18:43:37;13.52;;;4.45;;
26502;SDS011;14177;51.520;6.764;2022-12-28T18:46:18;9.35;;;4.25;;
26502;SDS011;14177;51.520;6.764;2022-12-28T18:50:03;8.43;;;3.78;;
26502;SDS011;14177;51.520;6.764;2022-12-28T18:53:37;9.95;;;3.90;;
26502;SDS011;14177;51.520;6.764;2022-12-28T18:56:25;6.63;;;3.20;;
26502;SDS011;14177;51.520;6.764;2022-12-28T18:58:59;8.25;;;3.63;;
26502;SDS011;14177;51.520;6.764;2022-12-28T19:01:34;9.32;;;4.72;;